createdAt,value
2022-09-23T00:01:24.907Z,10.47
2022-09-23T00:03:52.646Z,10.00
2022-09-23T00:06:21.636Z,9.57
2022-09-23T00:08:50.508Z,9.53
2022-09-23T00:11:22.765Z,9.90
2022-09-23T00:13:54.462Z,10.40
2022-09-23T00:16:24.539Z,10.70
2022-09-23T00:18:52.945Z,10.67
2022-09-23T00:21:21.429Z,11.53
2022-09-23T00:23:49.552Z,9.83
2022-09-23T00:26:19.120Z,10.83
2022-09-23T00:28:48.778Z,11.17
2022-09-23T00:31:17.594Z,10.80
2022-09-23T00:33:47.066Z,9.63
2022-09-23T00:36:17.456Z,9.57
2022-09-23T00:38:45.914Z,9.43
2022-09-23T00:41:15.322Z,10.07
2022-09-23T00:43:44.920Z,9.40
2022-09-23T00:46:17.855Z,9.37
2022-09-23T00:48:46.221Z,8.27
2022-09-23T00:51:18.046Z,9.77
2022-09-23T00:53:46.883Z,10.43
2022-09-23T00:56:15.795Z,10.67
2022-09-23T00:58:45.999Z,9.43
2022-09-23T01:01:15.353Z,11.13
2022-09-23T01:03:44.236Z,10.03
2022-09-23T01:06:12.784Z,9.00
2022-09-23T01:08:43.005Z,10.90
2022-09-23T01:11:16.342Z,10.33
2022-09-23T01:13:48.399Z,11.37
2022-09-23T01:16:21.323Z,10.50
2022-09-23T01:18:51.389Z,10.40
2022-09-23T01:21:29.944Z,10.00
2022-09-23T01:24:08.855Z,10.13
2022-09-23T01:26:47.536Z,9.23
2022-09-23T01:29:28.562Z,10.20
2022-09-23T01:32:00.244Z,9.67
2022-09-23T01:34:31.663Z,7.40
2022-09-23T01:37:03.762Z,6.10
2022-09-23T01:39:34.892Z,6.03
2022-09-23T01:42:05.093Z,6.40
2022-09-23T01:44:36.375Z,6.33
2022-09-23T01:47:11.116Z,6.30
2022-09-23T01:49:44.105Z,6.43
2022-09-23T01:52:16.657Z,6.80
2022-09-23T01:54:47.342Z,6.27
2022-09-23T01:57:19.044Z,5.77
2022-09-23T01:59:49.376Z,6.30
2022-09-23T02:02:22.040Z,6.70
2022-09-23T02:04:51.995Z,7.90
2022-09-23T02:07:26.064Z,8.10
2022-09-23T02:09:57.276Z,8.37
2022-09-23T02:12:27.394Z,8.80
2022-09-23T02:14:58.396Z,9.07
2022-09-23T02:17:31.045Z,9.77
2022-09-23T02:20:01.432Z,9.63
2022-09-23T02:22:31.778Z,9.13
2022-09-23T02:24:59.928Z,10.17
2022-09-23T02:27:32.307Z,9.93
2022-09-23T02:30:04.904Z,11.07
2022-09-23T02:32:37.310Z,11.40
2022-09-23T02:35:09.717Z,12.27
2022-09-23T02:37:41.234Z,11.97
2022-09-23T02:40:13.428Z,10.80
2022-09-23T02:42:47.336Z,10.03
2022-09-23T02:45:15.443Z,11.07
2022-09-23T02:47:46.364Z,11.13
2022-09-23T02:50:14.964Z,10.30
2022-09-23T02:52:43.255Z,10.43
2022-09-23T02:55:13.195Z,10.07
2022-09-23T02:57:42.251Z,8.53
2022-09-23T03:00:12.359Z,9.23
2022-09-23T03:02:51.928Z,8.27
2022-09-23T03:05:25.317Z,8.83
2022-09-23T03:07:59.952Z,8.87
2022-09-23T03:10:32.522Z,8.37
2022-09-23T03:13:06.081Z,7.97
2022-09-23T03:15:37.201Z,8.20
2022-09-23T03:18:11.776Z,7.20
2022-09-23T03:20:44.046Z,7.63
2022-09-23T03:23:15.319Z,8.20
2022-09-23T03:25:45.903Z,7.43
2022-09-23T03:28:14.374Z,8.03
2022-09-23T03:30:43.652Z,8.07
2022-09-23T03:33:14.635Z,7.53
2022-09-23T03:36:00.197Z,7.27
2022-09-23T03:38:31.704Z,7.70
2022-09-23T03:41:01.522Z,7.73
2022-09-23T03:43:30.808Z,7.50
2022-09-23T03:45:59.615Z,7.77
2022-09-23T03:48:28.925Z,8.97
2022-09-23T03:50:58.338Z,7.87
2022-09-23T03:53:26.744Z,8.50
2022-09-23T03:55:54.763Z,8.03
2022-09-23T03:58:22.509Z,8.53
2022-09-23T04:00:50.721Z,7.43
2022-09-23T04:03:19.600Z,8.47
2022-09-23T04:05:49.703Z,9.07
2022-09-23T04:08:20.500Z,8.40
2022-09-23T04:10:52.893Z,8.43
2022-09-23T04:13:22.573Z,9.57
2022-09-23T04:15:51.983Z,9.60
2022-09-23T04:18:20.221Z,9.00
2022-09-23T04:20:49.937Z,10.43
2022-09-23T04:23:17.725Z,10.37
2022-09-23T04:25:46.166Z,12.63
2022-09-23T04:28:14.473Z,11.70
2022-09-23T04:30:43.886Z,12.00
2022-09-23T04:33:13.715Z,11.47
2022-09-23T04:35:43.378Z,13.60
2022-09-23T04:38:13.409Z,11.40
2022-09-23T04:40:41.290Z,11.73
2022-09-23T04:43:13.340Z,11.67
2022-09-23T04:45:41.509Z,12.87
2022-09-23T04:48:09.674Z,12.33
2022-09-23T04:50:37.919Z,12.93
2022-09-23T04:53:08.525Z,11.67
2022-09-23T04:55:38.231Z,11.43
2022-09-23T04:58:10.098Z,12.40
2022-09-23T05:00:38.595Z,11.83
2022-09-23T05:03:08.714Z,11.93
2022-09-23T05:05:37.604Z,11.77
2022-09-23T05:08:05.539Z,10.57
2022-09-23T05:10:34.459Z,10.20
2022-09-23T05:13:04.152Z,9.90
2022-09-23T05:15:32.287Z,8.37
2022-09-23T05:18:00.383Z,8.73
2022-09-23T05:20:29.540Z,7.70
2022-09-23T05:22:57.412Z,7.80
2022-09-23T05:25:25.361Z,7.63
2022-09-23T05:27:53.069Z,7.97
2022-09-23T05:30:25.149Z,8.37
2022-09-23T05:32:53.035Z,7.80
2022-09-23T05:35:20.786Z,7.60
2022-09-23T05:37:48.910Z,8.07
2022-09-23T05:40:17.239Z,8.37
2022-09-23T05:42:45.249Z,8.37
2022-09-23T05:45:13.564Z,8.30
2022-09-23T05:47:43.468Z,8.03
2022-09-23T05:50:11.268Z,7.10
2022-09-23T05:52:39.286Z,7.23
2022-09-23T05:55:07.642Z,7.07
2022-09-23T05:57:35.786Z,6.60
2022-09-23T06:00:04.054Z,6.70
2022-09-23T06:02:31.867Z,6.43
2022-09-23T06:05:01.286Z,6.00
2022-09-23T06:07:30.238Z,6.37
2022-09-23T06:09:57.992Z,7.20
2022-09-23T06:12:25.987Z,6.43
2022-09-23T06:14:54.454Z,7.00
2022-09-23T06:17:22.585Z,5.17
2022-09-23T06:19:50.612Z,5.37
2022-09-23T06:22:20.251Z,4.80
2022-09-23T06:24:48.667Z,5.13
2022-09-23T06:27:16.483Z,4.80
2022-09-23T06:29:44.738Z,5.30
2022-09-23T06:32:12.469Z,5.37
2022-09-23T06:34:50.733Z,5.60
2022-09-23T06:37:21.138Z,5.50
2022-09-23T06:39:49.462Z,5.07
2022-09-23T06:42:17.712Z,5.17
2022-09-23T06:44:45.682Z,5.40
2022-09-23T06:47:13.605Z,5.60
2022-09-23T06:49:41.692Z,5.43
2022-09-23T06:52:10.002Z,5.57
2022-09-23T06:54:39.527Z,5.70
2022-09-23T06:57:07.382Z,5.10
2022-09-23T06:59:35.647Z,4.60
2022-09-23T07:02:05.655Z,4.47
2022-09-23T07:04:33.494Z,3.33
2022-09-23T07:07:02.005Z,4.57
2022-09-23T07:09:30.320Z,4.40
2022-09-23T07:11:59.983Z,3.83
2022-09-23T07:14:28.106Z,5.77
2022-09-23T07:16:56.056Z,4.37
2022-09-23T07:19:24.511Z,5.23
2022-09-23T07:21:52.188Z,5.27
2022-09-23T07:24:20.120Z,4.93
2022-09-23T07:26:49.808Z,4.80
2022-09-23T07:29:19.879Z,4.97
2022-09-23T07:31:49.319Z,4.60
2022-09-23T07:34:17.213Z,5.73
2022-09-23T07:36:45.270Z,4.60
2022-09-23T07:39:13.790Z,5.10
2022-09-23T07:41:44.889Z,5.60
2022-09-23T07:44:12.978Z,5.30
2022-09-23T07:46:42.230Z,5.57
2022-09-23T07:49:10.746Z,5.90
2022-09-23T07:51:39.623Z,4.80
2022-09-23T07:54:08.972Z,4.70
2022-09-23T07:56:37.262Z,5.23
2022-09-23T07:59:05.461Z,4.23
2022-09-23T08:01:34.940Z,4.93
2022-09-23T08:04:06.830Z,4.50
2022-09-23T08:06:36.336Z,4.43
2022-09-23T08:09:05.375Z,4.47
2022-09-23T08:11:33.994Z,3.47
2022-09-23T08:14:02.286Z,5.03
2022-09-23T08:16:30.066Z,4.57
2022-09-23T08:18:58.243Z,3.87
2022-09-23T08:21:27.524Z,4.73
2022-09-23T08:23:55.726Z,4.67
2022-09-23T08:26:23.675Z,4.70
2022-09-23T08:28:54.051Z,4.67
2022-09-23T08:31:22.571Z,5.20
2022-09-23T08:33:55.587Z,4.40
2022-09-23T08:36:23.716Z,4.43
2022-09-23T08:38:53.000Z,3.70
2022-09-23T08:41:24.233Z,3.67
2022-09-23T08:43:55.242Z,4.30
2022-09-23T08:46:25.863Z,4.67
2022-09-23T08:48:55.386Z,4.03
2022-09-23T08:51:25.293Z,3.83
2022-09-23T08:53:54.809Z,3.67
2022-09-23T08:56:25.201Z,4.13
2022-09-23T08:58:57.483Z,3.90
2022-09-23T09:01:28.796Z,3.23
2022-09-23T09:03:57.696Z,3.07
2022-09-23T09:06:28.862Z,3.40
2022-09-23T09:08:59.562Z,3.67
2022-09-23T09:11:31.420Z,3.93
2022-09-23T09:14:02.462Z,3.90
2022-09-23T09:16:58.808Z,2.83
2022-09-23T09:19:39.699Z,2.57
2022-09-23T09:22:09.422Z,3.50
2022-09-23T09:24:38.950Z,2.43
2022-09-23T09:27:11.681Z,2.33
2022-09-23T09:29:41.006Z,3.27
2022-09-23T09:32:15.021Z,3.40
2022-09-23T09:34:46.860Z,2.23
2022-09-23T09:37:17.591Z,2.73
2022-09-23T09:39:46.887Z,3.87
2022-09-23T09:42:20.677Z,4.33
2022-09-23T09:44:50.859Z,3.83
2022-09-23T09:47:28.797Z,1.90
2022-09-23T09:49:59.413Z,2.90
2022-09-23T09:52:29.967Z,2.47
2022-09-23T09:55:17.236Z,2.37
2022-09-23T09:57:46.623Z,2.33
2022-09-23T10:00:19.315Z,2.23
2022-09-23T10:02:52.873Z,2.40
2022-09-23T10:05:29.390Z,2.60
2022-09-23T10:08:16.327Z,1.83
2022-09-23T10:10:54.884Z,2.27
2022-09-23T10:13:24.220Z,2.60
2022-09-23T10:15:54.952Z,2.60
2022-09-23T10:18:28.284Z,2.07
2022-09-23T10:21:01.586Z,2.27
2022-09-23T10:23:33.875Z,2.80
2022-09-23T10:26:06.014Z,2.37
2022-09-23T10:28:40.108Z,2.07
2022-09-23T10:31:11.382Z,2.03
2022-09-23T10:33:43.267Z,1.93
2022-09-23T10:36:12.215Z,1.57
2022-09-23T10:38:40.330Z,1.23
2022-09-23T10:41:31.260Z,1.63
2022-09-23T10:44:20.303Z,2.90
2022-09-23T10:46:52.443Z,2.10
2022-09-23T10:49:39.029Z,1.77
2022-09-23T10:52:16.646Z,1.80
2022-09-23T10:54:55.176Z,2.43
2022-09-23T10:57:40.933Z,2.63
2022-09-23T11:00:15.558Z,3.77
2022-09-23T11:02:54.011Z,2.20
2022-09-23T11:05:35.423Z,1.90
2022-09-23T11:08:07.549Z,6.97
2022-09-23T11:10:52.467Z,7.57
2022-09-23T11:13:28.068Z,8.13
2022-09-23T11:16:00.761Z,1.80
2022-09-23T11:18:39.147Z,1.43
2022-09-23T11:21:10.333Z,1.80
2022-09-23T11:23:49.681Z,1.60
2022-09-23T11:26:30.591Z,1.60
2022-09-23T11:29:19.091Z,1.73
2022-09-23T11:31:57.384Z,2.20
2022-09-23T11:34:41.962Z,1.30
2022-09-23T11:37:13.337Z,1.20
2022-09-23T11:39:43.487Z,1.40
2022-09-23T11:42:15.583Z,1.30
2022-09-23T11:44:47.293Z,1.70
2022-09-23T11:47:21.211Z,1.57
2022-09-23T11:49:54.706Z,1.27
2022-09-23T11:52:23.640Z,1.47
2022-09-23T11:54:53.887Z,1.33
2022-09-23T11:57:25.093Z,1.40
2022-09-23T11:59:57.415Z,1.77
2022-09-23T12:02:30.768Z,1.13
2022-09-23T12:05:02.905Z,1.23
2022-09-23T12:07:36.150Z,1.40
2022-09-23T12:10:06.058Z,1.60
2022-09-23T12:12:37.561Z,1.47
2022-09-23T12:15:14.441Z,2.03
2022-09-23T12:17:49.666Z,1.70
2022-09-23T12:20:25.495Z,2.37
2022-09-23T12:23:04.446Z,1.60
2022-09-23T12:25:38.910Z,1.67
2022-09-23T12:28:08.315Z,1.10
2022-09-23T12:30:39.711Z,1.10
2022-09-23T12:33:09.619Z,1.40
2022-09-23T12:35:43.600Z,2.07
2022-09-23T12:38:15.696Z,1.57
2022-09-23T12:40:45.025Z,1.70
2022-09-23T12:43:19.813Z,1.53
2022-09-23T12:45:49.629Z,1.20
2022-09-23T12:48:28.495Z,1.20
2022-09-23T12:50:58.574Z,1.50
2022-09-23T12:53:54.246Z,1.50
2022-09-23T12:56:23.208Z,1.40
2022-09-23T12:59:00.718Z,1.53
2022-09-23T13:01:36.889Z,1.80
2022-09-23T13:04:22.414Z,1.80
2022-09-23T13:06:55.632Z,1.63
2022-09-23T13:09:25.337Z,1.20
2022-09-23T13:11:56.388Z,1.50
2022-09-23T13:14:27.727Z,1.57
2022-09-23T13:16:59.199Z,1.43
2022-09-23T13:19:46.450Z,1.23
2022-09-23T13:22:14.777Z,1.67
2022-09-23T13:24:43.287Z,1.40
2022-09-23T13:27:20.986Z,1.70
2022-09-23T13:29:52.637Z,1.27
2022-09-23T13:32:24.394Z,1.60
2022-09-23T13:34:57.986Z,1.60
2022-09-23T13:37:27.016Z,1.50
2022-09-23T13:40:07.789Z,1.60
2022-09-23T13:42:38.012Z,1.40
2022-09-23T13:45:06.009Z,1.67
2022-09-23T13:47:38.256Z,1.80
2022-09-23T13:50:06.606Z,1.70
2022-09-23T13:52:35.023Z,1.40
2022-09-23T13:55:04.392Z,1.63
2022-09-23T13:57:33.862Z,1.77
2022-09-23T14:00:02.394Z,1.60
2022-09-23T14:02:30.509Z,1.80
2022-09-23T14:04:59.987Z,1.80
2022-09-23T14:07:28.883Z,2.03
2022-09-23T14:09:57.328Z,1.73
2022-09-23T14:12:25.209Z,1.40
2022-09-23T14:14:53.619Z,1.37
2022-09-23T14:17:23.841Z,1.40
2022-09-23T14:19:52.079Z,1.20
2022-09-23T14:22:36.883Z,1.53
2022-09-23T14:25:05.084Z,2.00
2022-09-23T14:27:34.516Z,1.30
2022-09-23T14:30:03.212Z,1.33
2022-09-23T14:32:33.909Z,1.50
2022-09-23T14:35:17.653Z,0.97
2022-09-23T14:38:05.516Z,1.47
2022-09-23T14:40:33.861Z,1.40
2022-09-23T14:43:04.656Z,1.13
2022-09-23T14:45:35.025Z,1.10
2022-09-23T14:48:06.457Z,1.50
2022-09-23T14:50:43.735Z,1.60
2022-09-23T14:53:29.576Z,1.50
2022-09-23T14:56:09.982Z,1.33
2022-09-23T14:58:43.031Z,1.60
2022-09-23T15:01:25.435Z,1.70
2022-09-23T15:03:54.428Z,1.53
2022-09-23T15:06:24.129Z,1.47
2022-09-23T15:08:52.629Z,1.57
2022-09-23T15:11:22.738Z,1.40
2022-09-23T15:13:52.266Z,1.63
2022-09-23T15:16:25.816Z,1.70
2022-09-23T15:18:55.559Z,1.30
2022-09-23T15:21:24.896Z,1.70
2022-09-23T15:23:54.941Z,1.40
2022-09-23T15:26:25.628Z,1.50
2022-09-23T15:28:55.926Z,2.00
2022-09-23T15:31:26.624Z,1.37
2022-09-23T15:33:56.234Z,1.90
2022-09-23T15:36:26.031Z,2.40
2022-09-23T15:38:55.179Z,2.10
2022-09-23T15:41:25.270Z,2.13
2022-09-23T15:43:53.064Z,1.93
2022-09-23T15:46:22.588Z,2.10
2022-09-23T15:48:58.647Z,2.33
2022-09-23T15:51:27.415Z,3.00
2022-09-23T15:53:56.591Z,2.23
2022-09-23T15:56:27.125Z,3.20
2022-09-23T15:58:55.128Z,3.37
2022-09-23T16:01:24.972Z,2.93
2022-09-23T16:03:52.905Z,3.17
2022-09-23T16:06:21.512Z,3.00
2022-09-23T16:08:49.689Z,2.57
2022-09-23T16:11:19.948Z,2.40
2022-09-23T16:13:51.583Z,2.60
2022-09-23T16:16:21.532Z,2.50
2022-09-23T16:18:50.863Z,2.93
2022-09-23T16:21:20.461Z,2.80
2022-09-23T16:23:51.709Z,3.73
2022-09-23T16:26:21.217Z,3.70
2022-09-23T16:28:51.814Z,5.33
2022-09-23T16:31:19.939Z,7.43
2022-09-23T16:33:48.435Z,6.77
2022-09-23T16:36:18.994Z,6.70
2022-09-23T16:38:47.394Z,4.47
2022-09-23T16:41:15.247Z,4.20
2022-09-23T16:43:43.303Z,3.17
2022-09-23T16:46:13.407Z,3.83
2022-09-23T16:48:41.784Z,2.63
2022-09-23T16:51:13.153Z,3.10
2022-09-23T16:53:40.849Z,3.40
2022-09-23T16:56:09.854Z,2.90
2022-09-23T16:58:37.588Z,3.00
2022-09-23T17:01:24.471Z,3.70
2022-09-23T17:03:53.800Z,3.23
2022-09-23T17:06:24.132Z,2.83
2022-09-23T17:08:51.876Z,4.70
2022-09-23T17:11:19.937Z,4.10
2022-09-23T17:13:47.858Z,3.97
2022-09-23T17:16:23.822Z,4.23
2022-09-23T17:18:54.930Z,3.60
2022-09-23T17:21:26.904Z,4.00
2022-09-23T17:23:54.854Z,3.03
2022-09-23T17:26:23.489Z,3.70
2022-09-23T17:28:51.763Z,3.97
2022-09-23T17:31:19.669Z,7.80
2022-09-23T17:33:48.515Z,4.23
2022-09-23T17:36:16.772Z,3.77
2022-09-23T17:38:46.493Z,2.50
2022-09-23T17:41:18.203Z,4.70
2022-09-23T17:43:46.876Z,4.50
2022-09-23T17:46:18.952Z,3.40
2022-09-23T17:48:47.220Z,3.27
2022-09-23T17:51:16.289Z,3.23
2022-09-23T17:53:48.687Z,3.97
2022-09-23T17:56:17.582Z,7.23
2022-09-23T17:58:46.089Z,6.77
2022-09-23T18:01:15.000Z,4.30
2022-09-23T18:03:44.131Z,3.07
2022-09-23T18:06:13.466Z,3.63
2022-09-23T18:08:42.257Z,2.87
2022-09-23T18:11:16.165Z,3.57
2022-09-23T18:13:46.994Z,3.73
2022-09-23T18:16:15.359Z,3.83
2022-09-23T18:18:43.282Z,3.47
2022-09-23T18:21:11.295Z,3.87
2022-09-23T18:23:39.314Z,3.70
2022-09-23T18:26:15.915Z,3.30
2022-09-23T18:28:43.934Z,3.03
2022-09-23T18:31:12.262Z,3.60
2022-09-23T18:33:40.228Z,3.60
2022-09-23T18:36:09.407Z,3.73
2022-09-23T18:38:37.301Z,3.53
2022-09-23T18:41:05.311Z,3.40
2022-09-23T18:43:41.401Z,3.10
2022-09-23T18:46:12.866Z,3.80
2022-09-23T18:48:58.340Z,4.07
2022-09-23T18:51:28.687Z,3.73
2022-09-23T18:53:57.731Z,5.33
2022-09-23T18:56:26.598Z,4.70
2022-09-23T18:58:56.659Z,4.17
2022-09-23T19:01:25.340Z,5.23
2022-09-23T19:03:56.052Z,4.40
2022-09-23T19:06:25.087Z,4.07
2022-09-23T19:08:53.853Z,4.03
2022-09-23T19:11:22.143Z,4.00
2022-09-23T19:13:56.402Z,3.37
2022-09-23T19:16:26.183Z,3.90
2022-09-23T19:18:55.934Z,3.67
2022-09-23T19:21:24.548Z,4.53
2022-09-23T19:23:53.251Z,3.60
2022-09-23T19:26:22.462Z,4.20
2022-09-23T19:28:51.491Z,3.80
2022-09-23T19:31:20.259Z,3.97
2022-09-23T19:33:57.562Z,4.10
2022-09-23T19:36:26.979Z,4.00
2022-09-23T19:38:55.636Z,3.93
2022-09-23T19:41:23.741Z,3.90
2022-09-23T19:43:53.601Z,4.00
2022-09-23T19:46:22.755Z,3.57
2022-09-23T19:48:50.856Z,4.13
2022-09-23T19:51:21.901Z,4.60
2022-09-23T19:53:49.733Z,4.27
2022-09-23T19:56:18.210Z,3.90
2022-09-23T19:58:47.411Z,4.47
2022-09-23T20:01:16.318Z,4.73
2022-09-23T20:03:45.714Z,4.93
2022-09-23T20:06:14.070Z,6.33
2022-09-23T20:08:44.235Z,7.50
2022-09-23T20:11:16.311Z,8.13
2022-09-23T20:13:47.919Z,7.63
2022-09-23T20:16:16.319Z,6.53
2022-09-23T20:18:44.568Z,6.67
2022-09-23T20:21:13.294Z,7.90
2022-09-23T20:23:41.607Z,6.90
2022-09-23T20:26:28.754Z,7.67
2022-09-23T20:28:56.769Z,8.93
2022-09-23T20:31:25.225Z,9.27
2022-09-23T20:33:57.430Z,10.27
2022-09-23T20:36:26.111Z,9.10
2022-09-23T20:38:54.809Z,10.07
2022-09-23T20:41:24.642Z,9.17
2022-09-23T20:43:56.456Z,9.90
2022-09-23T20:46:24.242Z,8.53
2022-09-23T20:48:52.551Z,8.43
2022-09-23T20:51:20.458Z,8.17
2022-09-23T20:53:52.135Z,9.00
2022-09-23T20:56:20.486Z,8.73
2022-09-23T20:58:52.612Z,8.03
2022-09-23T21:01:20.839Z,8.77
2022-09-23T21:03:50.602Z,9.10
2022-09-23T21:06:19.826Z,8.53
2022-09-23T21:08:48.301Z,9.73
2022-09-23T21:11:18.315Z,8.73
2022-09-23T21:13:47.177Z,8.47
2022-09-23T21:16:17.305Z,8.93
2022-09-23T21:18:45.653Z,8.30
2022-09-23T21:21:14.515Z,8.17
2022-09-23T21:23:43.339Z,8.63
2022-09-23T21:26:12.459Z,9.27
2022-09-23T21:28:41.293Z,9.90
2022-09-23T21:31:09.947Z,9.43
2022-09-23T21:33:40.334Z,9.13
2022-09-23T21:36:09.170Z,9.90
2022-09-23T21:38:36.899Z,8.80
2022-09-23T21:41:05.471Z,9.70
2022-09-23T21:43:34.909Z,9.80
2022-09-23T21:46:04.862Z,9.40
2022-09-23T21:48:33.390Z,10.07
2022-09-23T21:51:04.232Z,10.33
2022-09-23T21:53:33.767Z,7.90
2022-09-23T21:56:03.827Z,5.83
2022-09-23T21:58:32.143Z,8.50
2022-09-23T22:01:01.177Z,6.20
2022-09-23T22:03:29.533Z,7.47
2022-09-23T22:06:03.842Z,6.20
2022-09-23T22:08:37.135Z,7.33
2022-09-23T22:11:06.464Z,6.83
2022-09-23T22:13:34.705Z,7.00
2022-09-23T22:16:04.173Z,7.23
2022-09-23T22:18:32.261Z,7.13
2022-09-23T22:21:00.705Z,6.07
2022-09-23T22:23:31.070Z,6.37
2022-09-23T22:26:03.048Z,6.23
2022-09-23T22:28:51.389Z,6.00
2022-09-23T22:31:36.779Z,5.13
2022-09-23T22:34:04.979Z,4.20
2022-09-23T22:36:32.947Z,3.63
2022-09-23T22:39:03.747Z,3.60
2022-09-23T22:41:32.218Z,3.33
2022-09-23T22:44:00.455Z,4.13
2022-09-23T22:46:28.896Z,3.63
2022-09-23T22:48:57.075Z,3.80
2022-09-23T22:51:24.837Z,3.83
2022-09-23T22:53:54.931Z,4.00
2022-09-23T22:56:24.152Z,3.50
2022-09-23T22:58:52.141Z,3.20
2022-09-23T23:01:20.248Z,3.57
2022-09-23T23:03:48.236Z,3.70
2022-09-23T23:06:19.372Z,3.23
2022-09-23T23:08:48.395Z,3.80
2022-09-23T23:11:16.849Z,3.80
2022-09-23T23:13:46.921Z,4.00
2022-09-23T23:16:14.842Z,3.70
2022-09-23T23:18:43.599Z,3.77
2022-09-23T23:21:12.989Z,3.27
2022-09-23T23:23:44.001Z,3.67
2022-09-23T23:26:13.405Z,3.20
2022-09-23T23:28:41.560Z,3.80
2022-09-23T23:31:11.833Z,3.57
2022-09-23T23:33:40.880Z,3.57
2022-09-23T23:36:09.623Z,3.40
2022-09-23T23:38:38.842Z,3.97
2022-09-23T23:41:11.113Z,3.90
2022-09-23T23:43:40.095Z,3.83
2022-09-23T23:46:08.660Z,3.70
2022-09-23T23:48:39.908Z,4.37
2022-09-23T23:51:08.604Z,3.27
2022-09-23T23:53:37.692Z,3.60
2022-09-23T23:56:07.352Z,3.17
2022-09-23T23:58:35.484Z,4.00
